sensor_id;sensor_type;location;lat;lon;timestamp;P1;durP1;ratioP1;P2;durP2;ratioP2
69678;SDS011;56915;52.046;4.854;2022-08-21T00:01:35;11.25;;;5.28;;
69678;SDS011;56915;52.046;4.854;2022-08-21T00:04:06;10.00;;;5.35;;
69678;SDS011;56915;52.046;4.854;2022-08-21T00:06:35;11.57;;;5.47;;
69678;SDS011;56915;52.046;4.854;2022-08-21T00:09:03;11.77;;;5.00;;
69678;SDS011;56915;52.046;4.854;2022-08-21T00:11:33;11.68;;;5.30;;
69678;SDS011;56915;52.046;4.854;2022-08-21T00:14:01;9.13;;;5.03;;
69678;SDS011;56915;52.046;4.854;2022-08-21T00:16:29;8.55;;;4.75;;
69678;SDS011;56915;52.046;4.854;2022-08-21T00:18:56;11.07;;;5.45;;
69678;SDS011;56915;52.046;4.854;2022-08-21T00:21:22;8.87;;;5.07;;
69678;SDS011;56915;52.046;4.854;2022-08-21T00:23:50;12.25;;;5.65;;
69678;SDS011;56915;52.046;4.854;2022-08-21T00:26:17;10.02;;;5.32;;
69678;SDS011;56915;52.046;4.854;2022-08-21T00:28:44;11.13;;;5.18;;
69678;SDS011;56915;52.046;4.854;2022-08-21T00:31:15;8.65;;;5.10;;
69678;SDS011;56915;52.046;4.854;2022-08-21T00:33:43;10.97;;;6.00;;
69678;SDS011;56915;52.046;4.854;2022-08-21T00:36:10;11.75;;;5.57;;
69678;SDS011;56915;52.046;4.854;2022-08-21T00:38:39;14.93;;;5.43;;
69678;SDS011;56915;52.046;4.854;2022-08-21T00:41:07;11.63;;;5.43;;
69678;SDS011;56915;52.046;4.854;2022-08-21T00:43:55;9.40;;;6.03;;
69678;SDS011;56915;52.046;4.854;2022-08-21T00:46:22;11.20;;;6.10;;
69678;SDS011;56915;52.046;4.854;2022-08-21T00:48:53;13.27;;;5.93;;
69678;SDS011;56915;52.046;4.854;2022-08-21T00:51:28;12.00;;;5.78;;
69678;SDS011;56915;52.046;4.854;2022-08-21T00:54:04;11.90;;;5.90;;
69678;SDS011;56915;52.046;4.854;2022-08-21T00:56:44;12.25;;;5.63;;
69678;SDS011;56915;52.046;4.854;2022-08-21T00:59:13;12.13;;;5.63;;
69678;SDS011;56915;52.046;4.854;2022-08-21T01:01:42;15.68;;;5.95;;
69678;SDS011;56915;52.046;4.854;2022-08-21T01:04:09;11.75;;;6.13;;
69678;SDS011;56915;52.046;4.854;2022-08-21T01:06:36;12.23;;;6.25;;
69678;SDS011;56915;52.046;4.854;2022-08-21T01:09:02;11.85;;;6.18;;
69678;SDS011;56915;52.046;4.854;2022-08-21T01:11:30;12.83;;;6.20;;
69678;SDS011;56915;52.046;4.854;2022-08-21T01:13:57;13.73;;;6.10;;
69678;SDS011;56915;52.046;4.854;2022-08-21T01:16:24;12.65;;;6.20;;
69678;SDS011;56915;52.046;4.854;2022-08-21T01:18:51;9.27;;;5.45;;
69678;SDS011;56915;52.046;4.854;2022-08-21T01:21:20;9.60;;;5.07;;
69678;SDS011;56915;52.046;4.854;2022-08-21T01:23:54;10.23;;;5.33;;
69678;SDS011;56915;52.046;4.854;2022-08-21T01:26:23;13.45;;;5.28;;
69678;SDS011;56915;52.046;4.854;2022-08-21T01:29:05;10.35;;;5.00;;
69678;SDS011;56915;52.046;4.854;2022-08-21T01:31:54;9.90;;;4.82;;
69678;SDS011;56915;52.046;4.854;2022-08-21T01:34:21;8.88;;;4.78;;
69678;SDS011;56915;52.046;4.854;2022-08-21T01:36:48;8.83;;;4.67;;
69678;SDS011;56915;52.046;4.854;2022-08-21T01:39:15;10.20;;;4.47;;
69678;SDS011;56915;52.046;4.854;2022-08-21T01:41:43;8.75;;;5.05;;
69678;SDS011;56915;52.046;4.854;2022-08-21T01:44:09;9.68;;;4.80;;
69678;SDS011;56915;52.046;4.854;2022-08-21T01:46:36;9.05;;;4.60;;
69678;SDS011;56915;52.046;4.854;2022-08-21T01:49:04;10.83;;;4.90;;
69678;SDS011;56915;52.046;4.854;2022-08-21T01:51:31;8.98;;;4.47;;
69678;SDS011;56915;52.046;4.854;2022-08-21T01:53:58;10.93;;;4.68;;
69678;SDS011;56915;52.046;4.854;2022-08-21T01:56:25;10.63;;;4.90;;
69678;SDS011;56915;52.046;4.854;2022-08-21T01:58:53;10.13;;;5.70;;
69678;SDS011;56915;52.046;4.854;2022-08-21T02:01:20;8.30;;;4.67;;
69678;SDS011;56915;52.046;4.854;2022-08-21T02:03:47;9.48;;;4.55;;
69678;SDS011;56915;52.046;4.854;2022-08-21T02:06:15;10.73;;;4.70;;
69678;SDS011;56915;52.046;4.854;2022-08-21T02:08:44;9.27;;;4.50;;
69678;SDS011;56915;52.046;4.854;2022-08-21T02:11:11;7.82;;;4.43;;
69678;SDS011;56915;52.046;4.854;2022-08-21T02:13:39;10.40;;;4.67;;
69678;SDS011;56915;52.046;4.854;2022-08-21T02:16:05;8.65;;;4.68;;
69678;SDS011;56915;52.046;4.854;2022-08-21T02:18:34;9.15;;;4.43;;
69678;SDS011;56915;52.046;4.854;2022-08-21T02:21:01;13.13;;;4.60;;
69678;SDS011;56915;52.046;4.854;2022-08-21T02:23:45;9.68;;;4.43;;
69678;SDS011;56915;52.046;4.854;2022-08-21T02:26:12;9.17;;;4.60;;
69678;SDS011;56915;52.046;4.854;2022-08-21T02:28:39;11.20;;;4.90;;
69678;SDS011;56915;52.046;4.854;2022-08-21T02:31:05;10.10;;;4.30;;
69678;SDS011;56915;52.046;4.854;2022-08-21T02:33:32;10.35;;;4.20;;
69678;SDS011;56915;52.046;4.854;2022-08-21T02:36:01;11.50;;;4.32;;
69678;SDS011;56915;52.046;4.854;2022-08-21T02:38:30;9.30;;;4.20;;
69678;SDS011;56915;52.046;4.854;2022-08-21T02:41:08;11.63;;;4.25;;
69678;SDS011;56915;52.046;4.854;2022-08-21T02:43:37;9.35;;;4.35;;
69678;SDS011;56915;52.046;4.854;2022-08-21T02:46:04;9.45;;;4.60;;
69678;SDS011;56915;52.046;4.854;2022-08-21T02:48:32;9.90;;;4.50;;
69678;SDS011;56915;52.046;4.854;2022-08-21T02:51:03;7.53;;;4.23;;
69678;SDS011;56915;52.046;4.854;2022-08-21T02:53:32;10.18;;;4.50;;
69678;SDS011;56915;52.046;4.854;2022-08-21T02:56:01;8.95;;;4.43;;
69678;SDS011;56915;52.046;4.854;2022-08-21T02:58:33;7.63;;;3.92;;
69678;SDS011;56915;52.046;4.854;2022-08-21T03:01:05;10.60;;;4.70;;
69678;SDS011;56915;52.046;4.854;2022-08-21T03:03:36;10.10;;;4.33;;
69678;SDS011;56915;52.046;4.854;2022-08-21T03:06:05;7.75;;;4.20;;
69678;SDS011;56915;52.046;4.854;2022-08-21T03:08:34;10.10;;;4.55;;
69678;SDS011;56915;52.046;4.854;2022-08-21T03:11:02;13.38;;;4.80;;
69678;SDS011;56915;52.046;4.854;2022-08-21T03:13:31;12.27;;;4.53;;
69678;SDS011;56915;52.046;4.854;2022-08-21T03:15:58;8.77;;;4.17;;
69678;SDS011;56915;52.046;4.854;2022-08-21T03:18:26;7.47;;;4.43;;
69678;SDS011;56915;52.046;4.854;2022-08-21T03:20:52;8.32;;;4.40;;
69678;SDS011;56915;52.046;4.854;2022-08-21T03:23:20;8.90;;;4.25;;
69678;SDS011;56915;52.046;4.854;2022-08-21T03:25:47;11.02;;;4.70;;
69678;SDS011;56915;52.046;4.854;2022-08-21T03:28:16;8.80;;;4.43;;
69678;SDS011;56915;52.046;4.854;2022-08-21T03:30:46;9.30;;;4.30;;
69678;SDS011;56915;52.046;4.854;2022-08-21T03:33:15;13.95;;;4.75;;
69678;SDS011;56915;52.046;4.854;2022-08-21T03:35:46;8.13;;;4.35;;
69678;SDS011;56915;52.046;4.854;2022-08-21T03:38:18;9.85;;;4.18;;
69678;SDS011;56915;52.046;4.854;2022-08-21T03:40:51;9.47;;;4.53;;
69678;SDS011;56915;52.046;4.854;2022-08-21T03:43:18;11.07;;;4.40;;
69678;SDS011;56915;52.046;4.854;2022-08-21T03:45:46;7.15;;;4.15;;
69678;SDS011;56915;52.046;4.854;2022-08-21T03:48:13;10.68;;;4.07;;
69678;SDS011;56915;52.046;4.854;2022-08-21T03:50:41;12.10;;;4.47;;
69678;SDS011;56915;52.046;4.854;2022-08-21T03:53:10;12.27;;;3.87;;
69678;SDS011;56915;52.046;4.854;2022-08-21T03:55:43;8.90;;;4.00;;
69678;SDS011;56915;52.046;4.854;2022-08-21T03:58:11;9.52;;;4.03;;
69678;SDS011;56915;52.046;4.854;2022-08-21T04:00:42;9.38;;;3.95;;
69678;SDS011;56915;52.046;4.854;2022-08-21T04:03:11;8.50;;;3.65;;
69678;SDS011;56915;52.046;4.854;2022-08-21T04:05:38;8.07;;;4.03;;
69678;SDS011;56915;52.046;4.854;2022-08-21T04:08:05;11.65;;;3.85;;
69678;SDS011;56915;52.046;4.854;2022-08-21T04:10:33;11.07;;;3.90;;
69678;SDS011;56915;52.046;4.854;2022-08-21T04:13:03;10.68;;;4.00;;
69678;SDS011;56915;52.046;4.854;2022-08-21T04:15:31;10.05;;;4.07;;
69678;SDS011;56915;52.046;4.854;2022-08-21T04:17:58;8.93;;;3.90;;
69678;SDS011;56915;52.046;4.854;2022-08-21T04:20:26;8.25;;;3.95;;
69678;SDS011;56915;52.046;4.854;2022-08-21T04:22:52;9.02;;;3.92;;
69678;SDS011;56915;52.046;4.854;2022-08-21T04:25:20;9.88;;;3.90;;
69678;SDS011;56915;52.046;4.854;2022-08-21T04:27:49;9.77;;;4.03;;
69678;SDS011;56915;52.046;4.854;2022-08-21T04:30:16;6.57;;;3.83;;
69678;SDS011;56915;52.046;4.854;2022-08-21T04:32:48;7.45;;;3.63;;
69678;SDS011;56915;52.046;4.854;2022-08-21T04:35:18;11.40;;;4.22;;
69678;SDS011;56915;52.046;4.854;2022-08-21T04:37:46;9.70;;;3.80;;
69678;SDS011;56915;52.046;4.854;2022-08-21T04:40:15;9.95;;;3.80;;
69678;SDS011;56915;52.046;4.854;2022-08-21T04:42:44;9.77;;;3.80;;
69678;SDS011;56915;52.046;4.854;2022-08-21T04:45:15;10.65;;;3.90;;
69678;SDS011;56915;52.046;4.854;2022-08-21T04:47:48;9.93;;;4.00;;
69678;SDS011;56915;52.046;4.854;2022-08-21T04:50:18;9.50;;;4.10;;
69678;SDS011;56915;52.046;4.854;2022-08-21T04:52:50;13.80;;;4.35;;
69678;SDS011;56915;52.046;4.854;2022-08-21T04:55:17;9.07;;;4.13;;
69678;SDS011;56915;52.046;4.854;2022-08-21T04:57:44;8.70;;;4.07;;
69678;SDS011;56915;52.046;4.854;2022-08-21T05:00:15;8.35;;;4.05;;
69678;SDS011;56915;52.046;4.854;2022-08-21T05:02:45;9.00;;;4.15;;
69678;SDS011;56915;52.046;4.854;2022-08-21T05:05:14;9.45;;;4.15;;
69678;SDS011;56915;52.046;4.854;2022-08-21T05:07:42;13.97;;;4.40;;
69678;SDS011;56915;52.046;4.854;2022-08-21T05:10:10;11.10;;;4.18;;
69678;SDS011;56915;52.046;4.854;2022-08-21T05:12:39;10.15;;;4.47;;
69678;SDS011;56915;52.046;4.854;2022-08-21T05:15:08;9.63;;;4.63;;
69678;SDS011;56915;52.046;4.854;2022-08-21T05:17:39;10.68;;;4.40;;
69678;SDS011;56915;52.046;4.854;2022-08-21T05:20:07;11.00;;;4.30;;
69678;SDS011;56915;52.046;4.854;2022-08-21T05:22:35;8.40;;;4.28;;
69678;SDS011;56915;52.046;4.854;2022-08-21T05:25:03;11.27;;;4.47;;
69678;SDS011;56915;52.046;4.854;2022-08-21T05:27:43;15.57;;;4.53;;
69678;SDS011;56915;52.046;4.854;2022-08-21T05:30:12;10.13;;;4.40;;
69678;SDS011;56915;52.046;4.854;2022-08-21T05:32:39;11.47;;;4.57;;
69678;SDS011;56915;52.046;4.854;2022-08-21T05:35:07;7.63;;;4.10;;
69678;SDS011;56915;52.046;4.854;2022-08-21T05:37:34;10.40;;;4.50;;
69678;SDS011;56915;52.046;4.854;2022-08-21T05:40:01;7.47;;;3.90;;
69678;SDS011;56915;52.046;4.854;2022-08-21T05:42:48;9.52;;;3.83;;
69678;SDS011;56915;52.046;4.854;2022-08-21T05:45:23;16.03;;;4.30;;
69678;SDS011;56915;52.046;4.854;2022-08-21T05:48:22;8.18;;;3.95;;
69678;SDS011;56915;52.046;4.854;2022-08-21T05:50:50;10.38;;;4.10;;
69678;SDS011;56915;52.046;4.854;2022-08-21T05:53:18;7.75;;;3.72;;
69678;SDS011;56915;52.046;4.854;2022-08-21T05:55:47;9.35;;;4.13;;
69678;SDS011;56915;52.046;4.854;2022-08-21T05:58:19;9.60;;;4.03;;
69678;SDS011;56915;52.046;4.854;2022-08-21T06:00:47;7.10;;;3.55;;
69678;SDS011;56915;52.046;4.854;2022-08-21T06:03:25;9.55;;;4.10;;
69678;SDS011;56915;52.046;4.854;2022-08-21T06:05:54;7.93;;;3.80;;
69678;SDS011;56915;52.046;4.854;2022-08-21T06:08:22;8.38;;;4.28;;
69678;SDS011;56915;52.046;4.854;2022-08-21T06:10:50;9.40;;;3.83;;
69678;SDS011;56915;52.046;4.854;2022-08-21T06:13:18;11.40;;;3.83;;
69678;SDS011;56915;52.046;4.854;2022-08-21T06:15:46;9.30;;;3.70;;
69678;SDS011;56915;52.046;4.854;2022-08-21T06:18:14;8.27;;;3.53;;
69678;SDS011;56915;52.046;4.854;2022-08-21T06:20:41;9.00;;;3.55;;
69678;SDS011;56915;52.046;4.854;2022-08-21T06:23:08;8.90;;;3.70;;
69678;SDS011;56915;52.046;4.854;2022-08-21T06:25:35;8.10;;;3.42;;
69678;SDS011;56915;52.046;4.854;2022-08-21T06:28:07;9.60;;;3.40;;
69678;SDS011;56915;52.046;4.854;2022-08-21T06:30:36;14.48;;;3.80;;
69678;SDS011;56915;52.046;4.854;2022-08-21T06:33:04;7.78;;;3.20;;
69678;SDS011;56915;52.046;4.854;2022-08-21T06:35:32;11.53;;;3.43;;
69678;SDS011;56915;52.046;4.854;2022-08-21T06:37:59;8.98;;;3.08;;
69678;SDS011;56915;52.046;4.854;2022-08-21T06:40:27;7.63;;;2.88;;
69678;SDS011;56915;52.046;4.854;2022-08-21T06:42:55;9.85;;;3.15;;
69678;SDS011;56915;52.046;4.854;2022-08-21T06:45:31;8.50;;;3.03;;
69678;SDS011;56915;52.046;4.854;2022-08-21T06:47:58;7.97;;;3.27;;
69678;SDS011;56915;52.046;4.854;2022-08-21T06:50:25;8.98;;;3.20;;
69678;SDS011;56915;52.046;4.854;2022-08-21T06:52:59;7.57;;;3.00;;
69678;SDS011;56915;52.046;4.854;2022-08-21T06:55:28;8.77;;;3.10;;
69678;SDS011;56915;52.046;4.854;2022-08-21T06:57:55;6.30;;;2.75;;
69678;SDS011;56915;52.046;4.854;2022-08-21T07:00:22;10.03;;;3.23;;
69678;SDS011;56915;52.046;4.854;2022-08-21T07:02:49;9.80;;;3.00;;
69678;SDS011;56915;52.046;4.854;2022-08-21T07:05:15;7.25;;;3.08;;
69678;SDS011;56915;52.046;4.854;2022-08-21T07:07:44;9.90;;;3.10;;
69678;SDS011;56915;52.046;4.854;2022-08-21T07:10:13;9.38;;;3.00;;
69678;SDS011;56915;52.046;4.854;2022-08-21T07:12:48;10.20;;;3.23;;
69678;SDS011;56915;52.046;4.854;2022-08-21T07:15:17;9.75;;;3.15;;
69678;SDS011;56915;52.046;4.854;2022-08-21T07:17:44;7.57;;;3.50;;
69678;SDS011;56915;52.046;4.854;2022-08-21T07:20:11;11.63;;;3.20;;
69678;SDS011;56915;52.046;4.854;2022-08-21T07:22:39;10.30;;;3.40;;
69678;SDS011;56915;52.046;4.854;2022-08-21T07:25:07;9.57;;;3.07;;
69678;SDS011;56915;52.046;4.854;2022-08-21T07:27:34;9.35;;;3.40;;
69678;SDS011;56915;52.046;4.854;2022-08-21T07:30:01;7.78;;;3.00;;
69678;SDS011;56915;52.046;4.854;2022-08-21T07:32:29;9.35;;;3.30;;
69678;SDS011;56915;52.046;4.854;2022-08-21T07:34:56;7.18;;;3.17;;
69678;SDS011;56915;52.046;4.854;2022-08-21T07:37:23;9.10;;;3.10;;
69678;SDS011;56915;52.046;4.854;2022-08-21T07:39:50;9.35;;;2.90;;
69678;SDS011;56915;52.046;4.854;2022-08-21T07:42:17;8.63;;;2.80;;
69678;SDS011;56915;52.046;4.854;2022-08-21T07:44:44;7.28;;;2.65;;
69678;SDS011;56915;52.046;4.854;2022-08-21T07:47:11;5.00;;;2.72;;
69678;SDS011;56915;52.046;4.854;2022-08-21T07:49:38;10.10;;;3.10;;
69678;SDS011;56915;52.046;4.854;2022-08-21T07:52:05;8.45;;;3.17;;
69678;SDS011;56915;52.046;4.854;2022-08-21T07:54:32;6.32;;;2.95;;
69678;SDS011;56915;52.046;4.854;2022-08-21T07:57:00;7.68;;;3.08;;
69678;SDS011;56915;52.046;4.854;2022-08-21T07:59:31;11.27;;;3.80;;
69678;SDS011;56915;52.046;4.854;2022-08-21T08:02:09;7.67;;;2.80;;
69678;SDS011;56915;52.046;4.854;2022-08-21T08:04:47;7.47;;;3.10;;
69678;SDS011;56915;52.046;4.854;2022-08-21T08:07:16;14.73;;;4.20;;
69678;SDS011;56915;52.046;4.854;2022-08-21T08:09:44;7.72;;;2.90;;
69678;SDS011;56915;52.046;4.854;2022-08-21T08:12:11;9.65;;;3.30;;
69678;SDS011;56915;52.046;4.854;2022-08-21T08:14:38;11.03;;;2.90;;
69678;SDS011;56915;52.046;4.854;2022-08-21T08:17:05;8.80;;;3.13;;
69678;SDS011;56915;52.046;4.854;2022-08-21T08:19:31;9.63;;;3.00;;
69678;SDS011;56915;52.046;4.854;2022-08-21T08:21:58;8.15;;;2.70;;
69678;SDS011;56915;52.046;4.854;2022-08-21T08:26:56;8.40;;;2.50;;
69678;SDS011;56915;52.046;4.854;2022-08-21T08:29:23;7.18;;;2.70;;
69678;SDS011;56915;52.046;4.854;2022-08-21T08:31:52;7.32;;;2.60;;
69678;SDS011;56915;52.046;4.854;2022-08-21T08:34:18;8.60;;;2.70;;
69678;SDS011;56915;52.046;4.854;2022-08-21T08:36:50;6.82;;;2.45;;
69678;SDS011;56915;52.046;4.854;2022-08-21T08:39:17;6.17;;;2.50;;
69678;SDS011;56915;52.046;4.854;2022-08-21T08:41:59;6.75;;;2.47;;
69678;SDS011;56915;52.046;4.854;2022-08-21T08:44:57;7.95;;;2.70;;
69678;SDS011;56915;52.046;4.854;2022-08-21T08:47:37;5.90;;;2.40;;
69678;SDS011;56915;52.046;4.854;2022-08-21T08:52:46;6.37;;;2.10;;
69678;SDS011;56915;52.046;4.854;2022-08-21T08:55:28;5.20;;;2.17;;
69678;SDS011;56915;52.046;4.854;2022-08-21T08:58:02;5.38;;;1.98;;
69678;SDS011;56915;52.046;4.854;2022-08-21T09:00:30;5.82;;;1.70;;
69678;SDS011;56915;52.046;4.854;2022-08-21T09:02:58;9.55;;;1.90;;
69678;SDS011;56915;52.046;4.854;2022-08-21T09:05:29;5.27;;;2.07;;
69678;SDS011;56915;52.046;4.854;2022-08-21T09:11:29;5.65;;;2.00;;
69678;SDS011;56915;52.046;4.854;2022-08-21T09:14:29;4.90;;;1.90;;
69678;SDS011;56915;52.046;4.854;2022-08-21T09:17:24;5.85;;;2.10;;
69678;SDS011;56915;52.046;4.854;2022-08-21T09:25:31;6.10;;;1.90;;
69678;SDS011;56915;52.046;4.854;2022-08-21T09:28:03;5.10;;;1.90;;
69678;SDS011;56915;52.046;4.854;2022-08-21T09:30:33;7.25;;;2.65;;
69678;SDS011;56915;52.046;4.854;2022-08-21T09:32:59;6.33;;;1.80;;
69678;SDS011;56915;52.046;4.854;2022-08-21T09:35:26;7.70;;;2.13;;
69678;SDS011;56915;52.046;4.854;2022-08-21T09:37:57;4.18;;;2.15;;
69678;SDS011;56915;52.046;4.854;2022-08-21T09:43:06;4.85;;;2.00;;
69678;SDS011;56915;52.046;4.854;2022-08-21T09:45:46;5.60;;;1.80;;
69678;SDS011;56915;52.046;4.854;2022-08-21T09:48:17;4.32;;;1.98;;
69678;SDS011;56915;52.046;4.854;2022-08-21T09:50:46;5.75;;;2.08;;
69678;SDS011;56915;52.046;4.854;2022-08-21T09:53:16;7.43;;;1.90;;
69678;SDS011;56915;52.046;4.854;2022-08-21T09:55:56;4.90;;;1.90;;
69678;SDS011;56915;52.046;4.854;2022-08-21T09:58:50;5.83;;;1.67;;
69678;SDS011;56915;52.046;4.854;2022-08-21T10:01:19;4.95;;;1.90;;
69678;SDS011;56915;52.046;4.854;2022-08-21T10:04:03;4.20;;;1.83;;
69678;SDS011;56915;52.046;4.854;2022-08-21T10:06:33;5.43;;;1.70;;
69678;SDS011;56915;52.046;4.854;2022-08-21T10:09:11;7.15;;;2.00;;
69678;SDS011;56915;52.046;4.854;2022-08-21T10:11:49;6.73;;;2.00;;
69678;SDS011;56915;52.046;4.854;2022-08-21T10:14:44;5.18;;;1.70;;
69678;SDS011;56915;52.046;4.854;2022-08-21T10:17:38;4.28;;;1.73;;
69678;SDS011;56915;52.046;4.854;2022-08-21T10:20:25;6.07;;;2.13;;
69678;SDS011;56915;52.046;4.854;2022-08-21T10:28:44;5.15;;;2.15;;
69678;SDS011;56915;52.046;4.854;2022-08-21T10:31:36;4.57;;;1.98;;
69678;SDS011;56915;52.046;4.854;2022-08-21T10:36:37;4.88;;;1.80;;
69678;SDS011;56915;52.046;4.854;2022-08-21T10:47:35;7.53;;;1.80;;
69678;SDS011;56915;52.046;4.854;2022-08-21T10:50:31;7.60;;;1.95;;
69678;SDS011;56915;52.046;4.854;2022-08-21T10:56:17;5.05;;;1.88;;
69678;SDS011;56915;52.046;4.854;2022-08-21T11:04:11;7.30;;;1.63;;
69678;SDS011;56915;52.046;4.854;2022-08-21T11:06:47;4.07;;;1.67;;
69678;SDS011;56915;52.046;4.854;2022-08-21T11:09:20;5.28;;;1.80;;
69678;SDS011;56915;52.046;4.854;2022-08-21T11:11:52;5.28;;;1.90;;
69678;SDS011;56915;52.046;4.854;2022-08-21T11:17:20;7.72;;;2.22;;
69678;SDS011;56915;52.046;4.854;2022-08-21T11:20:03;5.83;;;2.13;;
69678;SDS011;56915;52.046;4.854;2022-08-21T11:22:54;5.05;;;1.98;;
69678;SDS011;56915;52.046;4.854;2022-08-21T11:28:21;4.13;;;1.95;;
69678;SDS011;56915;52.046;4.854;2022-08-21T11:33:47;4.50;;;1.60;;
69678;SDS011;56915;52.046;4.854;2022-08-21T11:53:02;4.45;;;1.77;;
69678;SDS011;56915;52.046;4.854;2022-08-21T12:01:09;3.40;;;1.50;;
69678;SDS011;56915;52.046;4.854;2022-08-21T12:03:42;4.60;;;1.50;;
69678;SDS011;56915;52.046;4.854;2022-08-21T12:06:28;4.00;;;1.63;;
69678;SDS011;56915;52.046;4.854;2022-08-21T12:09:09;6.63;;;1.80;;
69678;SDS011;56915;52.046;4.854;2022-08-21T12:12:03;5.63;;;1.63;;
69678;SDS011;56915;52.046;4.854;2022-08-21T12:14:51;3.57;;;1.60;;
69678;SDS011;56915;52.046;4.854;2022-08-21T12:17:37;4.13;;;1.50;;
69678;SDS011;56915;52.046;4.854;2022-08-21T12:25:41;3.80;;;1.77;;
69678;SDS011;56915;52.046;4.854;2022-08-21T12:28:29;3.53;;;1.17;;
69678;SDS011;56915;52.046;4.854;2022-08-21T12:30:57;5.45;;;1.42;;
69678;SDS011;56915;52.046;4.854;2022-08-21T12:33:30;5.75;;;2.35;;
69678;SDS011;56915;52.046;4.854;2022-08-21T12:36:05;4.28;;;2.10;;
69678;SDS011;56915;52.046;4.854;2022-08-21T12:41:48;3.87;;;2.00;;
69678;SDS011;56915;52.046;4.854;2022-08-21T12:44:24;3.72;;;1.60;;
69678;SDS011;56915;52.046;4.854;2022-08-21T12:50:00;4.35;;;1.80;;
69678;SDS011;56915;52.046;4.854;2022-08-21T12:52:45;6.03;;;1.75;;
69678;SDS011;56915;52.046;4.854;2022-08-21T12:55:25;2.53;;;1.70;;
69678;SDS011;56915;52.046;4.854;2022-08-21T13:00:25;4.75;;;1.95;;
69678;SDS011;56915;52.046;4.854;2022-08-21T13:02:54;4.88;;;1.60;;
69678;SDS011;56915;52.046;4.854;2022-08-21T13:08:03;3.93;;;1.50;;
69678;SDS011;56915;52.046;4.854;2022-08-21T13:10:32;5.53;;;1.60;;
69678;SDS011;56915;52.046;4.854;2022-08-21T13:13:01;5.85;;;1.75;;
69678;SDS011;56915;52.046;4.854;2022-08-21T13:15:38;4.50;;;1.50;;
69678;SDS011;56915;52.046;4.854;2022-08-21T13:18:20;3.65;;;1.63;;
69678;SDS011;56915;52.046;4.854;2022-08-21T13:21:04;4.83;;;1.60;;
69678;SDS011;56915;52.046;4.854;2022-08-21T13:23:34;3.80;;;1.60;;
69678;SDS011;56915;52.046;4.854;2022-08-21T13:26:01;5.43;;;1.80;;
69678;SDS011;56915;52.046;4.854;2022-08-21T13:28:44;3.38;;;1.60;;
69678;SDS011;56915;52.046;4.854;2022-08-21T13:31:17;3.83;;;2.20;;
69678;SDS011;56915;52.046;4.854;2022-08-21T13:33:54;4.47;;;1.83;;
69678;SDS011;56915;52.046;4.854;2022-08-21T13:36:29;3.75;;;1.55;;
69678;SDS011;56915;52.046;4.854;2022-08-21T13:39:05;3.20;;;1.70;;
69678;SDS011;56915;52.046;4.854;2022-08-21T13:41:36;2.83;;;1.63;;
69678;SDS011;56915;52.046;4.854;2022-08-21T13:44:15;2.30;;;1.50;;
69678;SDS011;56915;52.046;4.854;2022-08-21T13:46:46;3.60;;;1.70;;
69678;SDS011;56915;52.046;4.854;2022-08-21T13:49:16;1.92;;;1.52;;
69678;SDS011;56915;52.046;4.854;2022-08-21T13:51:45;4.57;;;1.80;;
69678;SDS011;56915;52.046;4.854;2022-08-21T13:54:15;5.35;;;1.60;;
69678;SDS011;56915;52.046;4.854;2022-08-21T13:56:49;3.83;;;1.65;;
69678;SDS011;56915;52.046;4.854;2022-08-21T13:59:30;2.87;;;1.63;;
69678;SDS011;56915;52.046;4.854;2022-08-21T14:02:22;4.10;;;1.90;;
69678;SDS011;56915;52.046;4.854;2022-08-21T14:05:00;5.68;;;1.70;;
69678;SDS011;56915;52.046;4.854;2022-08-21T14:07:36;4.78;;;1.60;;
69678;SDS011;56915;52.046;4.854;2022-08-21T14:10:07;4.25;;;1.80;;
69678;SDS011;56915;52.046;4.854;2022-08-21T14:12:50;2.87;;;1.40;;
69678;SDS011;56915;52.046;4.854;2022-08-21T14:15:29;3.22;;;1.95;;
69678;SDS011;56915;52.046;4.854;2022-08-21T14:18:17;4.53;;;1.55;;
69678;SDS011;56915;52.046;4.854;2022-08-21T14:20:45;2.67;;;1.50;;
69678;SDS011;56915;52.046;4.854;2022-08-21T14:23:23;3.60;;;1.48;;
69678;SDS011;56915;52.046;4.854;2022-08-21T14:25:54;4.90;;;1.60;;
69678;SDS011;56915;52.046;4.854;2022-08-21T14:28:27;4.43;;;1.50;;
69678;SDS011;56915;52.046;4.854;2022-08-21T14:31:10;2.88;;;1.60;;
69678;SDS011;56915;52.046;4.854;2022-08-21T14:33:39;5.85;;;1.70;;
69678;SDS011;56915;52.046;4.854;2022-08-21T14:36:06;5.22;;;1.70;;
69678;SDS011;56915;52.046;4.854;2022-08-21T14:38:34;4.10;;;1.90;;
69678;SDS011;56915;52.046;4.854;2022-08-21T14:41:07;5.07;;;1.70;;
69678;SDS011;56915;52.046;4.854;2022-08-21T14:43:44;3.40;;;1.80;;
69678;SDS011;56915;52.046;4.854;2022-08-21T14:46:13;4.32;;;1.50;;
69678;SDS011;56915;52.046;4.854;2022-08-21T14:48:47;3.13;;;1.63;;
69678;SDS011;56915;52.046;4.854;2022-08-21T14:51:13;2.83;;;1.20;;
69678;SDS011;56915;52.046;4.854;2022-08-21T14:53:41;4.20;;;1.35;;
69678;SDS011;56915;52.046;4.854;2022-08-21T14:56:07;2.95;;;1.60;;
69678;SDS011;56915;52.046;4.854;2022-08-21T14:58:35;4.07;;;1.50;;
69678;SDS011;56915;52.046;4.854;2022-08-21T15:01:18;3.22;;;1.65;;
69678;SDS011;56915;52.046;4.854;2022-08-21T15:03:48;2.83;;;1.40;;
69678;SDS011;56915;52.046;4.854;2022-08-21T15:06:15;4.72;;;1.40;;
69678;SDS011;56915;52.046;4.854;2022-08-21T15:08:43;4.57;;;1.50;;
69678;SDS011;56915;52.046;4.854;2022-08-21T15:11:16;2.85;;;1.35;;
69678;SDS011;56915;52.046;4.854;2022-08-21T15:14:06;3.47;;;1.40;;
69678;SDS011;56915;52.046;4.854;2022-08-21T15:16:35;3.60;;;1.40;;
69678;SDS011;56915;52.046;4.854;2022-08-21T15:19:02;3.03;;;1.30;;
69678;SDS011;56915;52.046;4.854;2022-08-21T15:21:29;3.08;;;1.25;;
69678;SDS011;56915;52.046;4.854;2022-08-21T15:23:56;2.97;;;1.48;;
69678;SDS011;56915;52.046;4.854;2022-08-21T15:26:23;3.35;;;1.60;;
69678;SDS011;56915;52.046;4.854;2022-08-21T15:28:50;3.50;;;1.70;;
69678;SDS011;56915;52.046;4.854;2022-08-21T15:31:17;3.53;;;1.48;;
69678;SDS011;56915;52.046;4.854;2022-08-21T15:33:44;4.47;;;1.70;;
69678;SDS011;56915;52.046;4.854;2022-08-21T15:36:11;5.15;;;1.60;;
69678;SDS011;56915;52.046;4.854;2022-08-21T15:38:37;4.90;;;1.70;;
69678;SDS011;56915;52.046;4.854;2022-08-21T15:41:04;6.23;;;1.90;;
69678;SDS011;56915;52.046;4.854;2022-08-21T15:43:38;4.68;;;1.42;;
69678;SDS011;56915;52.046;4.854;2022-08-21T15:46:10;4.25;;;1.50;;
69678;SDS011;56915;52.046;4.854;2022-08-21T15:48:39;6.30;;;1.88;;
69678;SDS011;56915;52.046;4.854;2022-08-21T15:51:06;4.50;;;1.60;;
69678;SDS011;56915;52.046;4.854;2022-08-21T15:53:34;3.67;;;1.73;;
69678;SDS011;56915;52.046;4.854;2022-08-21T15:56:05;4.35;;;1.80;;
69678;SDS011;56915;52.046;4.854;2022-08-21T15:58:37;3.47;;;2.25;;
69678;SDS011;56915;52.046;4.854;2022-08-21T16:01:04;2.88;;;1.73;;
69678;SDS011;56915;52.046;4.854;2022-08-21T16:03:31;3.88;;;1.80;;
69678;SDS011;56915;52.046;4.854;2022-08-21T16:05:59;3.97;;;1.57;;
69678;SDS011;56915;52.046;4.854;2022-08-21T16:08:26;4.47;;;1.42;;
69678;SDS011;56915;52.046;4.854;2022-08-21T16:10:53;3.97;;;1.88;;
69678;SDS011;56915;52.046;4.854;2022-08-21T16:13:23;4.47;;;1.75;;
69678;SDS011;56915;52.046;4.854;2022-08-21T16:15:53;5.05;;;2.00;;
69678;SDS011;56915;52.046;4.854;2022-08-21T16:18:20;4.03;;;1.70;;
69678;SDS011;56915;52.046;4.854;2022-08-21T16:20:48;4.18;;;1.70;;
69678;SDS011;56915;52.046;4.854;2022-08-21T16:23:15;5.22;;;1.67;;
69678;SDS011;56915;52.046;4.854;2022-08-21T16:25:42;7.30;;;2.05;;
69678;SDS011;56915;52.046;4.854;2022-08-21T16:28:10;4.40;;;2.10;;
69678;SDS011;56915;52.046;4.854;2022-08-21T16:30:41;6.63;;;1.60;;
69678;SDS011;56915;52.046;4.854;2022-08-21T16:33:13;4.43;;;1.77;;
69678;SDS011;56915;52.046;4.854;2022-08-21T16:36:02;4.07;;;2.17;;
69678;SDS011;56915;52.046;4.854;2022-08-21T16:38:30;4.82;;;2.10;;
69678;SDS011;56915;52.046;4.854;2022-08-21T16:41:00;3.67;;;2.10;;